モントリオール/トルドー の空港の天気 - METARとTAF

モントリオール・ピエール・エリオット・トルドー国際空港 ( CYUL / YUL ) - カナダ ケベック州モントリオール
飛行場実況気象(Metar)
観測時間02/17 09:00 EST (02/17 14:00 UTC)
風向・風速北北東 3m/s
視程10km以上
天気現象
少しの雲 雲底高度 610m
少しの雲 雲底高度 6710m
気温-13℃
湿度66%
気圧1024.6hPa
METARCYUL 171400Z 02005KT 30SM FEW020 FEW220 M13/M18 A3024 RMK CF1CI1 CF TR CI TR SLP246
過去の天気等 Google飛行場航空写真 Wunderground天気予報

過去48時間のMETAR

飛行場予報(TAF)
発表時間: 2/17 09:42 EST (2/17 14:42 UTC)
予報対象時間: 17日10時 EST ~ 18日7時 EST
風向・風速不定 2m/s
視程10km以上
少しの雲 雲底高度 610m
少しの雲 雲底高度 6710m
17日21時 EST から
風向・風速不定 2m/s
視程10km以上
全天の8割程度の雲 雲底高度 4270m
18日3時 EST から
風向・風速北北東 4m/s
視程10km以上
全天を覆う雲 雲底高度 3350m
TAF CYUL 171442Z 1715/1812 VRB03KT P6SM FEW020 FEW220
FM180200 VRB03KT P6SM BKN140
FM180800 02008KT P6SM OVC110 RMK NXT FCST BY 171800Z